CYXJ

Fort St John Airport

Fort St.John, British Columbia, Canada
METAR CYXJ 232200Z 23021KT 60SM DRSN SCT150 BKN210 M00/M08 A2945 RMK AC3CI3 SLP009
Observed Flight Rules
Feb-23 @ 22:00 UTC (31 minutes ago) Visual Flight Rules
Wind Visibility Clouds Conditions
230° at 21 knots 60 miles
  • Scattered at 15,000' AGL
  • Broken at 21,000' AGL
  • Low drifting
  • Snow
Temperatures Readings
Current 0°C / 32°F
Dewpoint -8°C / 18°F
Humidity 55%
Altimeter 29.45" Hg
Pressure 1000.9 hPa
Elevation 695
METAR CYXJ 232200Z 23021KT 60SM DRSN SCT150 BKN210 M00/M08 A2945 RMK AC3CI3 SLP009
Observed Flight Rules
Feb-23 @ 22:00 UTC
(31 minutes ago)
VFR
Wind Visibility
230° at 21 knots 60 miles
Clouds
  • Scattered at 15,000' AGL
  • Broken at 21,000' AGL
Conditions
  • Low drifting
  • Snow
Temperature Dewpoint
0°C / 32°F -8°C / 18°F
Humidity Altimeter Pressure
55% 29.45" Hg 1000.9 hPa